sensor_id;sensor_type;location;lat;lon;timestamp;pressure;altitude;pressure_sealevel;temperature;humidity
52653;BME280;39353;42.864;12.014;2022-11-20T00:02:13;96529.04;;;21.79;57.38
52653;BME280;39353;42.864;12.014;2022-11-20T00:04:56;96531.88;;;21.78;57.47
52653;BME280;39353;42.864;12.014;2022-11-20T00:07:36;96534.02;;;21.76;57.21
52653;BME280;39353;42.864;12.014;2022-11-20T00:10:17;96530.13;;;21.74;57.38
52653;BME280;39353;42.864;12.014;2022-11-20T00:12:45;96531.48;;;21.72;57.27
52653;BME280;39353;42.864;12.014;2022-11-20T00:15:26;96530.14;;;21.69;57.40
52653;BME280;39353;42.864;12.014;2022-11-20T00:17:53;96527.64;;;21.66;57.46
52653;BME280;39353;42.864;12.014;2022-11-20T00:20:20;96527.01;;;21.64;57.45
52653;BME280;39353;42.864;12.014;2022-11-20T00:22:48;96528.98;;;21.62;57.51
52653;BME280;39353;42.864;12.014;2022-11-20T00:25:17;96533.91;;;21.60;57.37
52653;BME280;39353;42.864;12.014;2022-11-20T00:27:58;96532.76;;;21.58;57.59
52653;BME280;39353;42.864;12.014;2022-11-20T00:30:25;96539.39;;;21.56;57.54
52653;BME280;39353;42.864;12.014;2022-11-20T00:33:06;96538.39;;;21.53;57.68
52653;BME280;39353;42.864;12.014;2022-11-20T00:35:47;96537.80;;;21.51;57.62
52653;BME280;39353;42.864;12.014;2022-11-20T00:38:14;96538.15;;;21.49;57.56
52653;BME280;39353;42.864;12.014;2022-11-20T00:40:42;96539.77;;;21.47;57.71
52653;BME280;39353;42.864;12.014;2022-11-20T00:43:09;96541.60;;;21.46;57.68
52653;BME280;39353;42.864;12.014;2022-11-20T00:46:07;96548.02;;;21.44;57.61
52653;BME280;39353;42.864;12.014;2022-11-20T00:48:35;96549.42;;;21.42;57.72
52653;BME280;39353;42.864;12.014;2022-11-20T00:51:21;96552.42;;;21.42;57.68
52653;BME280;39353;42.864;12.014;2022-11-20T00:54:02;96556.33;;;21.39;57.61
52653;BME280;39353;42.864;12.014;2022-11-20T00:56:43;96559.95;;;21.38;57.66
52653;BME280;39353;42.864;12.014;2022-11-20T00:59:10;96563.71;;;21.37;57.68
52653;BME280;39353;42.864;12.014;2022-11-20T01:01:37;96568.82;;;21.36;57.69
52653;BME280;39353;42.864;12.014;2022-11-20T01:04:05;96572.25;;;21.35;57.79
52653;BME280;39353;42.864;12.014;2022-11-20T01:06:35;96574.87;;;21.35;57.62
52653;BME280;39353;42.864;12.014;2022-11-20T01:09:17;96575.88;;;21.33;57.78
52653;BME280;39353;42.864;12.014;2022-11-20T01:11:44;96569.70;;;21.31;57.88
52653;BME280;39353;42.864;12.014;2022-11-20T01:14:16;96574.05;;;21.30;57.87
52653;BME280;39353;42.864;12.014;2022-11-20T01:16:57;96571.29;;;21.27;57.78
52653;BME280;39353;42.864;12.014;2022-11-20T01:19:41;96569.61;;;21.26;57.91
52653;BME280;39353;42.864;12.014;2022-11-20T01:22:08;96570.80;;;21.25;57.79
52653;BME280;39353;42.864;12.014;2022-11-20T01:24:35;96575.99;;;21.24;57.72
52653;BME280;39353;42.864;12.014;2022-11-20T01:27:16;96574.93;;;21.23;57.85
52653;BME280;39353;42.864;12.014;2022-11-20T01:29:58;96578.25;;;21.23;57.69
52653;BME280;39353;42.864;12.014;2022-11-20T01:32:25;96579.64;;;21.21;57.81
52653;BME280;39353;42.864;12.014;2022-11-20T01:35:06;96582.89;;;21.19;57.96
52653;BME280;39353;42.864;12.014;2022-11-20T01:37:50;96586.81;;;21.18;57.87
52653;BME280;39353;42.864;12.014;2022-11-20T01:40:17;96587.13;;;21.18;57.76
52653;BME280;39353;42.864;12.014;2022-11-20T01:42:53;96589.34;;;21.16;57.83
52653;BME280;39353;42.864;12.014;2022-11-20T01:46:03;96590.20;;;21.16;57.87
52653;BME280;39353;42.864;12.014;2022-11-20T01:48:42;96586.65;;;21.15;57.85
52653;BME280;39353;42.864;12.014;2022-11-20T01:51:32;96590.45;;;21.14;57.78
52653;BME280;39353;42.864;12.014;2022-11-20T01:54:07;96590.45;;;21.14;57.86
52653;BME280;39353;42.864;12.014;2022-11-20T01:56:54;96596.86;;;21.12;57.81
52653;BME280;39353;42.864;12.014;2022-11-20T01:59:26;96596.85;;;21.11;57.91
52653;BME280;39353;42.864;12.014;2022-11-20T02:02:09;96596.39;;;21.10;57.86
52653;BME280;39353;42.864;12.014;2022-11-20T02:04:36;96598.79;;;21.09;57.78
52653;BME280;39353;42.864;12.014;2022-11-20T02:07:04;96600.19;;;21.09;57.85
52653;BME280;39353;42.864;12.014;2022-11-20T02:09:31;96606.39;;;21.07;57.93
52653;BME280;39353;42.864;12.014;2022-11-20T02:11:59;96606.05;;;21.07;57.85
52653;BME280;39353;42.864;12.014;2022-11-20T02:14:42;96604.56;;;21.06;57.90
52653;BME280;39353;42.864;12.014;2022-11-20T02:17:10;96605.49;;;21.06;57.82
52653;BME280;39353;42.864;12.014;2022-11-20T02:19:38;96601.99;;;21.05;57.79
52653;BME280;39353;42.864;12.014;2022-11-20T02:22:32;96598.38;;;21.04;57.92
52653;BME280;39353;42.864;12.014;2022-11-20T02:25:19;96599.36;;;21.04;57.73
52653;BME280;39353;42.864;12.014;2022-11-20T02:27:47;96597.52;;;21.04;57.64
52653;BME280;39353;42.864;12.014;2022-11-20T02:30:15;96595.67;;;21.02;57.68
52653;BME280;39353;42.864;12.014;2022-11-20T02:32:43;96596.77;;;21.02;57.85
52653;BME280;39353;42.864;12.014;2022-11-20T02:37:54;96593.11;;;20.98;57.86
52653;BME280;39353;42.864;12.014;2022-11-20T02:40:23;96602.14;;;20.97;57.74
52653;BME280;39353;42.864;12.014;2022-11-20T02:43:04;96602.96;;;20.97;57.87
52653;BME280;39353;42.864;12.014;2022-11-20T02:45:44;96607.05;;;20.96;57.74
52653;BME280;39353;42.864;12.014;2022-11-20T02:48:25;96608.48;;;20.94;57.87
52653;BME280;39353;42.864;12.014;2022-11-20T02:50:52;96607.64;;;20.93;57.91
52653;BME280;39353;42.864;12.014;2022-11-20T02:53:33;96607.46;;;20.92;57.95
52653;BME280;39353;42.864;12.014;2022-11-20T02:56:15;96608.39;;;20.91;57.82
52653;BME280;39353;42.864;12.014;2022-11-20T02:58:42;96602.80;;;20.90;57.80
52653;BME280;39353;42.864;12.014;2022-11-20T03:01:23;96599.96;;;20.90;57.84
52653;BME280;39353;42.864;12.014;2022-11-20T03:04:04;96604.70;;;20.89;57.91
52653;BME280;39353;42.864;12.014;2022-11-20T03:06:45;96601.09;;;20.88;57.83
52653;BME280;39353;42.864;12.014;2022-11-20T03:09:26;96605.71;;;20.88;57.81
52653;BME280;39353;42.864;12.014;2022-11-20T03:11:53;96609.84;;;20.87;57.80
52653;BME280;39353;42.864;12.014;2022-11-20T03:14:34;96607.36;;;20.86;57.92
52653;BME280;39353;42.864;12.014;2022-11-20T03:17:01;96607.13;;;20.85;57.90
52653;BME280;39353;42.864;12.014;2022-11-20T03:19:42;96601.28;;;20.83;57.80
52653;BME280;39353;42.864;12.014;2022-11-20T03:22:09;96596.84;;;20.83;57.96
52653;BME280;39353;42.864;12.014;2022-11-20T03:24:50;96596.83;;;20.82;57.89
52653;BME280;39353;42.864;12.014;2022-11-20T03:27:17;96591.76;;;20.82;57.95
52653;BME280;39353;42.864;12.014;2022-11-20T03:29:58;96590.80;;;20.81;57.83
52653;BME280;39353;42.864;12.014;2022-11-20T03:32:26;96585.13;;;20.79;57.82
52653;BME280;39353;42.864;12.014;2022-11-20T03:34:53;96584.69;;;20.79;57.96
52653;BME280;39353;42.864;12.014;2022-11-20T03:37:20;96575.80;;;20.78;57.97
52653;BME280;39353;42.864;12.014;2022-11-20T03:39:47;96576.27;;;20.78;57.85
52653;BME280;39353;42.864;12.014;2022-11-20T03:42:17;96574.20;;;20.77;57.77
52653;BME280;39353;42.864;12.014;2022-11-20T03:45:04;96572.77;;;20.76;57.89
52653;BME280;39353;42.864;12.014;2022-11-20T03:47:32;96565.95;;;20.75;57.83
52653;BME280;39353;42.864;12.014;2022-11-20T03:49:59;96566.52;;;20.74;57.95
52653;BME280;39353;42.864;12.014;2022-11-20T03:52:41;96568.70;;;20.73;58.03
52653;BME280;39353;42.864;12.014;2022-11-20T03:55:08;96571.02;;;20.72;57.88
52653;BME280;39353;42.864;12.014;2022-11-20T03:57:49;96571.21;;;20.71;57.90
52653;BME280;39353;42.864;12.014;2022-11-20T04:00:30;96573.27;;;20.70;57.96
52653;BME280;39353;42.864;12.014;2022-11-20T04:03:11;96575.41;;;20.68;57.91
52653;BME280;39353;42.864;12.014;2022-11-20T04:05:52;96575.84;;;20.67;58.03
52653;BME280;39353;42.864;12.014;2022-11-20T04:08:36;96587.23;;;20.66;58.10
52653;BME280;39353;42.864;12.014;2022-11-20T04:13:46;96596.75;;;20.65;58.01
52653;BME280;39353;42.864;12.014;2022-11-20T04:16:33;96597.02;;;20.64;57.95
52653;BME280;39353;42.864;12.014;2022-11-20T04:19:03;96600.71;;;20.64;58.04
52653;BME280;39353;42.864;12.014;2022-11-20T04:21:46;96602.94;;;20.63;58.09
52653;BME280;39353;42.864;12.014;2022-11-20T04:24:14;96606.34;;;20.62;58.13
52653;BME280;39353;42.864;12.014;2022-11-20T04:26:55;96603.50;;;20.61;58.10
52653;BME280;39353;42.864;12.014;2022-11-20T04:29:22;96608.79;;;20.61;58.03
52653;BME280;39353;42.864;12.014;2022-11-20T04:31:49;96611.23;;;20.61;58.02
52653;BME280;39353;42.864;12.014;2022-11-20T04:34:31;96616.08;;;20.60;58.04
52653;BME280;39353;42.864;12.014;2022-11-20T04:37:13;96617.56;;;20.59;58.06
52653;BME280;39353;42.864;12.014;2022-11-20T04:39:43;96626.34;;;20.58;58.04
52653;BME280;39353;42.864;12.014;2022-11-20T04:42:11;96627.48;;;20.58;58.06
52653;BME280;39353;42.864;12.014;2022-11-20T04:44:57;96630.05;;;20.58;58.04
52653;BME280;39353;42.864;12.014;2022-11-20T04:47:28;96627.09;;;20.57;58.03
52653;BME280;39353;42.864;12.014;2022-11-20T04:50:11;96627.41;;;20.58;58.01
52653;BME280;39353;42.864;12.014;2022-11-20T04:52:38;96627.56;;;20.57;57.86
52653;BME280;39353;42.864;12.014;2022-11-20T04:55:05;96626.93;;;20.55;57.97
52653;BME280;39353;42.864;12.014;2022-11-20T04:57:33;96623.68;;;20.53;57.93
52653;BME280;39353;42.864;12.014;2022-11-20T05:00:16;96620.53;;;20.53;58.04
52653;BME280;39353;42.864;12.014;2022-11-20T05:02:57;96620.52;;;20.52;57.78
52653;BME280;39353;42.864;12.014;2022-11-20T05:05:25;96622.23;;;20.51;57.86
52653;BME280;39353;42.864;12.014;2022-11-20T05:07:56;96619.35;;;20.51;58.09
52653;BME280;39353;42.864;12.014;2022-11-20T05:10:25;96617.45;;;20.51;58.00
52653;BME280;39353;42.864;12.014;2022-11-20T05:13:08;96615.64;;;20.50;57.93
52653;BME280;39353;42.864;12.014;2022-11-20T05:15:48;96619.39;;;20.50;57.84
52653;BME280;39353;42.864;12.014;2022-11-20T05:18:30;96623.13;;;20.49;57.97
52653;BME280;39353;42.864;12.014;2022-11-20T05:21:13;96623.98;;;20.48;57.77
52653;BME280;39353;42.864;12.014;2022-11-20T05:23:42;96628.23;;;20.48;57.95
52653;BME280;39353;42.864;12.014;2022-11-20T05:26:14;96627.01;;;20.46;57.99
52653;BME280;39353;42.864;12.014;2022-11-20T05:28:45;96634.42;;;20.47;57.79
52653;BME280;39353;42.864;12.014;2022-11-20T05:31:28;96640.02;;;20.46;57.86
52653;BME280;39353;42.864;12.014;2022-11-20T05:33:56;96645.89;;;20.45;57.86
52653;BME280;39353;42.864;12.014;2022-11-20T05:36:37;96654.22;;;20.44;57.93
52653;BME280;39353;42.864;12.014;2022-11-20T05:39:19;96661.48;;;20.43;58.10
52653;BME280;39353;42.864;12.014;2022-11-20T05:42:01;96665.27;;;20.44;57.89
52653;BME280;39353;42.864;12.014;2022-11-20T05:44:47;96669.50;;;20.43;58.01
52653;BME280;39353;42.864;12.014;2022-11-20T05:47:31;96675.21;;;20.43;57.97
52653;BME280;39353;42.864;12.014;2022-11-20T05:50:14;96676.06;;;20.42;58.07
52653;BME280;39353;42.864;12.014;2022-11-20T05:52:58;96678.73;;;20.41;57.98
52653;BME280;39353;42.864;12.014;2022-11-20T05:55:26;96684.30;;;20.42;57.92
52653;BME280;39353;42.864;12.014;2022-11-20T05:58:08;96686.06;;;20.41;58.04
52653;BME280;39353;42.864;12.014;2022-11-20T06:00:35;96691.78;;;20.40;58.04
52653;BME280;39353;42.864;12.014;2022-11-20T06:03:16;96693.02;;;20.39;58.02
52653;BME280;39353;42.864;12.014;2022-11-20T06:05:43;96695.05;;;20.39;57.94
52653;BME280;39353;42.864;12.014;2022-11-20T06:08:10;96694.20;;;20.38;57.82
52653;BME280;39353;42.864;12.014;2022-11-20T06:10:38;96694.64;;;20.37;57.87
52653;BME280;39353;42.864;12.014;2022-11-20T06:13:08;96692.30;;;20.38;57.90
52653;BME280;39353;42.864;12.014;2022-11-20T06:15:35;96696.32;;;20.37;57.97
52653;BME280;39353;42.864;12.014;2022-11-20T06:18:03;96696.80;;;20.37;57.94
52653;BME280;39353;42.864;12.014;2022-11-20T06:20:30;96694.43;;;20.35;57.92
52653;BME280;39353;42.864;12.014;2022-11-20T06:22:58;96698.17;;;20.35;58.06
52653;BME280;39353;42.864;12.014;2022-11-20T06:25:25;96699.20;;;20.34;57.94
52653;BME280;39353;42.864;12.014;2022-11-20T06:27:52;96704.70;;;20.32;58.00
52653;BME280;39353;42.864;12.014;2022-11-20T06:30:33;96703.08;;;20.32;58.00
52653;BME280;39353;42.864;12.014;2022-11-20T06:33:14;96700.46;;;20.32;57.97
52653;BME280;39353;42.864;12.014;2022-11-20T06:35:59;96699.81;;;20.32;58.04
52653;BME280;39353;42.864;12.014;2022-11-20T06:38:28;96706.52;;;20.33;57.99
52653;BME280;39353;42.864;12.014;2022-11-20T06:41:18;96708.27;;;20.33;58.03
52653;BME280;39353;42.864;12.014;2022-11-20T06:44:00;96715.74;;;20.34;58.02
52653;BME280;39353;42.864;12.014;2022-11-20T06:46:41;96716.34;;;20.33;58.06
52653;BME280;39353;42.864;12.014;2022-11-20T06:49:22;96718.77;;;20.34;57.89
52653;BME280;39353;42.864;12.014;2022-11-20T06:52:03;96716.89;;;20.36;57.89
52653;BME280;39353;42.864;12.014;2022-11-20T06:54:30;96717.46;;;20.37;57.95
52653;BME280;39353;42.864;12.014;2022-11-20T06:57:11;96716.33;;;20.37;57.91
52653;BME280;39353;42.864;12.014;2022-11-20T06:59:51;96716.55;;;20.38;57.81
52653;BME280;39353;42.864;12.014;2022-11-20T07:02:32;96716.17;;;20.38;57.74
52653;BME280;39353;42.864;12.014;2022-11-20T07:04:59;96727.73;;;20.39;57.71
52653;BME280;39353;42.864;12.014;2022-11-20T07:07:40;96724.80;;;20.39;57.77
52653;BME280;39353;42.864;12.014;2022-11-20T07:10:08;96732.81;;;20.40;57.64
52653;BME280;39353;42.864;12.014;2022-11-20T07:12:36;96729.21;;;20.40;57.87
52653;BME280;39353;42.864;12.014;2022-11-20T07:15:17;96737.95;;;20.40;57.96
52653;BME280;39353;42.864;12.014;2022-11-20T07:17:45;96741.27;;;20.41;57.82
52653;BME280;39353;42.864;12.014;2022-11-20T07:20:26;96751.20;;;20.38;57.22
52653;BME280;39353;42.864;12.014;2022-11-20T07:22:55;96759.14;;;20.36;56.39
52653;BME280;39353;42.864;12.014;2022-11-20T07:25:24;96762.29;;;20.34;54.94
52653;BME280;39353;42.864;12.014;2022-11-20T07:27:57;96770.84;;;20.29;54.63
52653;BME280;39353;42.864;12.014;2022-11-20T07:30:39;96770.70;;;20.01;49.54
52653;BME280;39353;42.864;12.014;2022-11-20T07:33:21;96769.83;;;19.88;51.49
52653;BME280;39353;42.864;12.014;2022-11-20T07:36:02;96770.64;;;19.88;52.02
52653;BME280;39353;42.864;12.014;2022-11-20T07:38:30;96776.27;;;19.87;51.87
52653;BME280;39353;42.864;12.014;2022-11-20T07:41:11;96786.04;;;19.86;52.17
52653;BME280;39353;42.864;12.014;2022-11-20T07:43:52;96784.02;;;19.84;52.10
52653;BME280;39353;42.864;12.014;2022-11-20T07:46:33;96783.87;;;19.83;52.11
52653;BME280;39353;42.864;12.014;2022-11-20T07:49:00;96789.52;;;19.83;52.46
52653;BME280;39353;42.864;12.014;2022-11-20T07:51:41;96795.13;;;19.83;52.64
52653;BME280;39353;42.864;12.014;2022-11-20T07:54:09;96798.48;;;19.84;52.41
52653;BME280;39353;42.864;12.014;2022-11-20T07:56:50;96805.40;;;19.88;52.69
52653;BME280;39353;42.864;12.014;2022-11-20T07:59:18;96810.17;;;19.94;53.32
52653;BME280;39353;42.864;12.014;2022-11-20T08:01:58;96810.48;;;20.00;53.70
52653;BME280;39353;42.864;12.014;2022-11-20T08:04:40;96814.60;;;20.04;54.10
52653;BME280;39353;42.864;12.014;2022-11-20T08:07:20;96815.88;;;20.08;54.30
52653;BME280;39353;42.864;12.014;2022-11-20T08:10:01;96814.58;;;20.13;54.42
52653;BME280;39353;42.864;12.014;2022-11-20T08:12:29;96817.15;;;20.16;54.59
52653;BME280;39353;42.864;12.014;2022-11-20T08:15:14;96824.39;;;20.18;54.83
52653;BME280;39353;42.864;12.014;2022-11-20T08:18:13;96820.88;;;20.21;55.05
52653;BME280;39353;42.864;12.014;2022-11-20T08:20:41;96829.29;;;20.23;55.10
52653;BME280;39353;42.864;12.014;2022-11-20T08:23:09;96831.23;;;20.25;55.17
52653;BME280;39353;42.864;12.014;2022-11-20T08:25:51;96833.08;;;20.27;55.33
52653;BME280;39353;42.864;12.014;2022-11-20T08:28:32;96836.40;;;20.28;55.31
52653;BME280;39353;42.864;12.014;2022-11-20T08:31:13;96837.27;;;20.29;55.34
52653;BME280;39353;42.864;12.014;2022-11-20T08:33:40;96838.97;;;20.30;55.39
52653;BME280;39353;42.864;12.014;2022-11-20T08:36:10;96834.68;;;20.31;55.49
52653;BME280;39353;42.864;12.014;2022-11-20T08:38:41;96834.02;;;20.32;55.55
52653;BME280;39353;42.864;12.014;2022-11-20T08:41:08;96838.06;;;20.33;55.59
52653;BME280;39353;42.864;12.014;2022-11-20T08:44:07;96839.74;;;20.33;55.69
52653;BME280;39353;42.864;12.014;2022-11-20T08:46:37;96841.23;;;20.34;55.85
52653;BME280;39353;42.864;12.014;2022-11-20T08:49:06;96843.55;;;20.34;56.04
52653;BME280;39353;42.864;12.014;2022-11-20T08:51:35;96844.55;;;20.35;55.97
52653;BME280;39353;42.864;12.014;2022-11-20T08:54:04;96849.21;;;20.34;55.89
52653;BME280;39353;42.864;12.014;2022-11-20T08:56:32;96847.26;;;20.35;55.96
52653;BME280;39353;42.864;12.014;2022-11-20T08:59:14;96847.61;;;20.34;55.97
52653;BME280;39353;42.864;12.014;2022-11-20T09:01:41;96846.52;;;20.34;55.97
52653;BME280;39353;42.864;12.014;2022-11-20T09:04:22;96849.05;;;20.34;56.14
52653;BME280;39353;42.864;12.014;2022-11-20T09:06:49;96847.36;;;20.34;56.08
52653;BME280;39353;42.864;12.014;2022-11-20T09:09:17;96846.08;;;20.35;56.16
52653;BME280;39353;42.864;12.014;2022-11-20T09:11:47;96842.30;;;20.38;56.21
52653;BME280;39353;42.864;12.014;2022-11-20T09:14:16;96843.73;;;20.43;56.48
52653;BME280;39353;42.864;12.014;2022-11-20T09:16:45;96847.21;;;20.51;57.21
52653;BME280;39353;42.864;12.014;2022-11-20T09:19:26;96850.52;;;20.58;57.37
52653;BME280;39353;42.864;12.014;2022-11-20T09:22:08;96853.05;;;20.61;57.17
52653;BME280;39353;42.864;12.014;2022-11-20T09:24:49;96855.46;;;20.64;57.06
52653;BME280;39353;42.864;12.014;2022-11-20T09:27:18;96855.90;;;20.67;57.23
52653;BME280;39353;42.864;12.014;2022-11-20T09:30:04;96858.36;;;20.71;57.52
52653;BME280;39353;42.864;12.014;2022-11-20T09:32:31;96862.41;;;20.74;57.77
52653;BME280;39353;42.864;12.014;2022-11-20T09:34:58;96860.27;;;20.77;57.72
52653;BME280;39353;42.864;12.014;2022-11-20T09:37:39;96863.37;;;20.79;57.85
52653;BME280;39353;42.864;12.014;2022-11-20T09:40:26;96864.88;;;20.81;57.69
52653;BME280;39353;42.864;12.014;2022-11-20T09:43:21;96868.38;;;20.84;58.04
52653;BME280;39353;42.864;12.014;2022-11-20T09:46:16;96868.11;;;20.87;58.29
52653;BME280;39353;42.864;12.014;2022-11-20T09:51:59;96862.63;;;20.91;58.78
52653;BME280;39353;42.864;12.014;2022-11-20T09:54:44;96858.60;;;20.76;54.55
52653;BME280;39353;42.864;12.014;2022-11-20T09:57:15;96860.78;;;20.69;56.24
52653;BME280;39353;42.864;12.014;2022-11-20T10:00:02;96859.52;;;20.71;57.41
52653;BME280;39353;42.864;12.014;2022-11-20T10:05:48;96863.20;;;20.72;57.95
52653;BME280;39353;42.864;12.014;2022-11-20T10:09:06;96854.81;;;20.79;59.30
52653;BME280;39353;42.864;12.014;2022-11-20T10:15:09;96857.08;;;20.94;61.10
52653;BME280;39353;42.864;12.014;2022-11-20T10:20:48;96852.82;;;21.03;61.44
52653;BME280;39353;42.864;12.014;2022-11-20T10:23:44;96852.85;;;21.04;60.64
52653;BME280;39353;42.864;12.014;2022-11-20T10:26:43;96847.96;;;21.05;61.25
52653;BME280;39353;42.864;12.014;2022-11-20T10:29:15;96853.47;;;21.02;60.31
52653;BME280;39353;42.864;12.014;2022-11-20T10:32:15;96845.17;;;20.99;60.11
52653;BME280;39353;42.864;12.014;2022-11-20T10:37:50;96852.29;;;20.92;59.83
52653;BME280;39353;42.864;12.014;2022-11-20T10:43:19;96850.73;;;20.86;59.72
52653;BME280;39353;42.864;12.014;2022-11-20T10:46:01;96844.79;;;20.83;59.84
52653;BME280;39353;42.864;12.014;2022-11-20T10:48:48;96838.52;;;20.80;59.77
52653;BME280;39353;42.864;12.014;2022-11-20T10:51:37;96838.34;;;20.79;59.85
52653;BME280;39353;42.864;12.014;2022-11-20T10:54:39;96834.05;;;20.77;59.94
52653;BME280;39353;42.864;12.014;2022-11-20T11:00:22;96831.10;;;20.73;59.40
52653;BME280;39353;42.864;12.014;2022-11-20T11:03:02;96829.04;;;20.71;59.36
52653;BME280;39353;42.864;12.014;2022-11-20T11:06:00;96835.27;;;20.69;59.33
52653;BME280;39353;42.864;12.014;2022-11-20T11:08:37;96829.90;;;20.67;59.42
52653;BME280;39353;42.864;12.014;2022-11-20T11:11:31;96827.67;;;20.65;59.45
52653;BME280;39353;42.864;12.014;2022-11-20T11:14:15;96821.80;;;20.63;59.37
52653;BME280;39353;42.864;12.014;2022-11-20T11:16:57;96821.14;;;20.63;59.37
52653;BME280;39353;42.864;12.014;2022-11-20T11:19:24;96816.91;;;20.61;59.33
52653;BME280;39353;42.864;12.014;2022-11-20T11:21:55;96813.64;;;20.61;59.28
52653;BME280;39353;42.864;12.014;2022-11-20T11:24:29;96808.45;;;20.61;59.15
52653;BME280;39353;42.864;12.014;2022-11-20T11:27:14;96808.64;;;20.59;59.15
52653;BME280;39353;42.864;12.014;2022-11-20T11:30:25;96811.70;;;20.57;58.52
52653;BME280;39353;42.864;12.014;2022-11-20T11:33:03;96808.62;;;20.56;58.41
52653;BME280;39353;42.864;12.014;2022-11-20T11:35:56;96802.55;;;20.55;58.56
52653;BME280;39353;42.864;12.014;2022-11-20T11:38:37;96803.73;;;20.55;58.76
52653;BME280;39353;42.864;12.014;2022-11-20T11:41:13;96802.70;;;20.54;58.62
52653;BME280;39353;42.864;12.014;2022-11-20T11:43:57;96803.44;;;20.53;58.04
52653;BME280;39353;42.864;12.014;2022-11-20T11:47:24;96811.42;;;20.52;58.01
52653;BME280;39353;42.864;12.014;2022-11-20T11:53:17;96823.36;;;20.55;57.75
52653;BME280;39353;42.864;12.014;2022-11-20T11:56:08;96829.06;;;20.59;58.56
52653;BME280;39353;42.864;12.014;2022-11-20T11:58:51;96833.77;;;20.65;59.72
52653;BME280;39353;42.864;12.014;2022-11-20T12:01:52;96833.67;;;20.70;61.03
52653;BME280;39353;42.864;12.014;2022-11-20T12:04:44;96832.48;;;20.76;62.37
52653;BME280;39353;42.864;12.014;2022-11-20T12:16:03;96828.48;;;20.76;61.71
52653;BME280;39353;42.864;12.014;2022-11-20T12:18:31;96827.86;;;20.75;60.86
52653;BME280;39353;42.864;12.014;2022-11-20T12:30:18;96835.50;;;20.64;59.97
52653;BME280;39353;42.864;12.014;2022-11-20T12:41:02;96840.84;;;20.59;58.37
52653;BME280;39353;42.864;12.014;2022-11-20T12:43:46;96834.11;;;20.56;57.57
52653;BME280;39353;42.864;12.014;2022-11-20T12:47:16;96832.80;;;20.51;56.80
52653;BME280;39353;42.864;12.014;2022-11-20T12:52:57;96830.84;;;20.46;56.09
52653;BME280;39353;42.864;12.014;2022-11-20T13:01:21;96832.48;;;20.34;52.98
52653;BME280;39353;42.864;12.014;2022-11-20T13:07:13;96829.83;;;20.33;54.80
52653;BME280;39353;42.864;12.014;2022-11-20T13:09:58;96828.92;;;20.36;55.18
52653;BME280;39353;42.864;12.014;2022-11-20T13:12:51;96827.66;;;20.38;56.17
52653;BME280;39353;42.864;12.014;2022-11-20T13:18:40;96823.89;;;20.43;56.11
52653;BME280;39353;42.864;12.014;2022-11-20T13:21:36;96819.16;;;20.43;54.88
52653;BME280;39353;42.864;12.014;2022-11-20T13:24:25;96821.17;;;20.41;55.21
52653;BME280;39353;42.864;12.014;2022-11-20T13:27:33;96826.27;;;20.37;54.44
52653;BME280;39353;42.864;12.014;2022-11-20T13:30:22;96824.90;;;20.36;53.76
52653;BME280;39353;42.864;12.014;2022-11-20T13:33:38;96820.70;;;20.39;54.51
52653;BME280;39353;42.864;12.014;2022-11-20T13:35:53;96818.95;;;20.42;54.94
52653;BME280;39353;42.864;12.014;2022-11-20T13:38:50;96816.23;;;20.44;55.08
52653;BME280;39353;42.864;12.014;2022-11-20T13:44:25;96820.49;;;20.50;55.26
52653;BME280;39353;42.864;12.014;2022-11-20T13:47:25;96824.13;;;20.52;55.28
52653;BME280;39353;42.864;12.014;2022-11-20T13:49:55;96826.68;;;20.54;55.18
52653;BME280;39353;42.864;12.014;2022-11-20T13:58:27;96822.19;;;20.59;55.48
52653;BME280;39353;42.864;12.014;2022-11-20T14:01:09;96819.76;;;20.59;55.56
52653;BME280;39353;42.864;12.014;2022-11-20T14:03:38;96813.92;;;20.59;55.49
52653;BME280;39353;42.864;12.014;2022-11-20T14:06:34;96812.17;;;20.60;55.51
52653;BME280;39353;42.864;12.014;2022-11-20T14:08:59;96813.95;;;20.60;55.46
52653;BME280;39353;42.864;12.014;2022-11-20T14:11:47;96807.41;;;20.60;55.53
52653;BME280;39353;42.864;12.014;2022-11-20T14:14:30;96805.17;;;20.61;55.61
52653;BME280;39353;42.864;12.014;2022-11-20T14:17:19;96806.22;;;20.61;55.65
52653;BME280;39353;42.864;12.014;2022-11-20T14:20:06;96808.19;;;20.61;55.61
52653;BME280;39353;42.864;12.014;2022-11-20T14:22:34;96809.27;;;20.61;55.70
52653;BME280;39353;42.864;12.014;2022-11-20T14:27:45;96809.01;;;20.61;55.67
52653;BME280;39353;42.864;12.014;2022-11-20T14:30:19;96807.86;;;20.62;55.55
52653;BME280;39353;42.864;12.014;2022-11-20T14:33:03;96806.14;;;20.62;55.72
52653;BME280;39353;42.864;12.014;2022-11-20T14:35:50;96808.70;;;20.62;55.80
52653;BME280;39353;42.864;12.014;2022-11-20T14:38:32;96809.70;;;20.63;55.64
52653;BME280;39353;42.864;12.014;2022-11-20T14:41:22;96805.99;;;20.63;55.74
52653;BME280;39353;42.864;12.014;2022-11-20T14:44:06;96807.17;;;20.65;55.87
52653;BME280;39353;42.864;12.014;2022-11-20T14:46:37;96805.55;;;20.66;55.69
52653;BME280;39353;42.864;12.014;2022-11-20T14:49:19;96807.38;;;20.67;56.03
52653;BME280;39353;42.864;12.014;2022-11-20T14:52:09;96809.58;;;20.68;55.96
52653;BME280;39353;42.864;12.014;2022-11-20T14:54:54;96807.14;;;20.69;55.92
52653;BME280;39353;42.864;12.014;2022-11-20T14:57:36;96808.10;;;20.71;56.08
52653;BME280;39353;42.864;12.014;2022-11-20T15:00:18;96810.64;;;20.72;55.89
52653;BME280;39353;42.864;12.014;2022-11-20T15:02:59;96812.38;;;20.72;55.94
52653;BME280;39353;42.864;12.014;2022-11-20T15:05:49;96814.95;;;20.70;55.71
52653;BME280;39353;42.864;12.014;2022-11-20T15:08:30;96814.84;;;20.70;55.99
52653;BME280;39353;42.864;12.014;2022-11-20T15:11:23;96817.48;;;20.69;55.98